Time;durP1;ratioP1;P1;durP2;ratioP2;P2;SDS_P1;SDS_P2;PMS_P1;PMS_P2;Temp;Humidity;BMP_temperature;BMP_pressure;BME280_temperature;BME280_humidity;BME280_pressure;Samples;Min_cycle;Max_cycle;Signal;HPM_P1;HPM_P2
2022/06/26 00:08:42;;;;;;;4.90;3.80;;;;;;;20.30;43.97;99381.77;445223;1269;141981;-60
2022/06/26 00:18:48;;;;;;;3.40;3.10;;;;;;;20.09;44.51;99386.47;431718;1269;141252;-58
2022/06/26 00:28:53;;;;;;;4.00;3.60;;;;;;;19.89;45.03;99392.71;439949;1270;141075;-58
2022/06/26 00:38:59;;;;;;;4.20;3.00;;;;;;;19.72;45.54;99395.87;430982;1270;140980;-58
2022/06/26 00:49:05;;;;;;;3.60;3.30;;;;;;;19.59;46.12;99399.14;430869;1270;142663;-60
2022/06/26 00:59:12;;;;;;;4.10;3.50;;;;;;;19.53;46.58;99401.04;431121;1270;142260;-58
2022/06/26 01:09:18;;;;;;;4.30;4.00;;;;;;;19.48;47.06;99400.86;431287;1270;146939;-58
2022/06/26 01:19:24;;;;;;;3.60;3.30;;;;;;;19.45;47.39;99397.66;436571;1270;142602;-58
2022/06/26 01:29:30;;;;;;;4.70;3.10;;;;;;;19.42;47.79;99397.58;435049;1270;141269;-58
2022/06/26 01:39:36;;;;;;;3.40;3.20;;;;;;;19.35;48.03;99395.85;437650;1269;141040;-58
2022/06/26 01:49:42;;;;;;;4.90;3.30;;;;;;;19.24;48.28;99405.49;438295;1269;141508;-58
2022/06/26 01:59:48;;;;;;;5.20;3.10;;;;;;;19.11;48.96;99409.95;436887;1269;141234;-59
2022/06/26 02:20:17;;;;;;;3.10;2.80;;;;;;;18.92;49.80;99418.66;446955;1270;141587;-58
2022/06/26 02:30:23;;;;;;;3.70;3.10;;;;;;;18.85;50.32;99421.31;436871;1270;146217;-57
2022/06/26 02:40:31;;;;;;;5.60;3.60;;;;;;;18.79;50.45;99428.61;431438;1270;142688;-58
2022/06/26 02:50:37;;;;;;;3.70;3.40;;;;;;;18.85;50.66;99439.94;431480;1270;141497;-59
2022/06/26 03:00:43;;;;;;;4.30;2.90;;;;;;;19.60;50.41;99440.64;433237;1270;141936;-58
2022/06/26 03:10:50;;;;;;;5.10;3.30;;;;;;;21.81;47.70;99444.20;430647;1270;140506;-59
2022/06/26 03:20:55;;;;;;;6.40;3.40;;;;;;;23.18;44.69;99450.93;430478;1270;141703;-58
2022/06/26 03:31:01;;;;;;;5.40;3.80;;;;;;;23.69;43.65;99457.41;432246;1270;140545;-59
2022/06/26 03:41:07;;;;;;;4.80;3.70;;;;;;;24.14;41.97;99470.95;430593;1270;141199;-58
2022/06/26 03:51:14;;;;;;;4.30;4.00;;;;;;;22.34;43.51;99476.02;431634;1270;142000;-59
2022/06/26 04:01:20;;;;;;;4.50;4.10;;;;;;;24.59;43.26;99476.20;431044;1270;146328;-60
2022/06/26 04:11:26;;;;;;;9.80;3.60;;;;;;;30.70;36.61;99472.11;430389;1271;142272;-60
2022/06/26 04:21:32;;;;;;;4.50;2.90;;;;;;;34.49;31.22;99478.46;430964;1270;141321;-58
2022/06/26 04:31:38;;;;;;;3.50;3.20;;;;;;;37.13;27.42;99485.11;430895;1270;141983;-59
2022/06/26 04:41:44;;;;;;;3.20;3.00;;;;;;;38.60;25.19;99490.30;431153;1270;141425;-57
2022/06/26 04:51:50;;;;;;;3.80;3.50;;;;;;;40.43;22.98;99500.53;430909;1270;141058;-59
2022/06/26 05:01:55;;;;;;;4.50;3.10;;;;;;;42.09;21.07;99504.76;431615;1270;142172;-59
2022/06/26 05:12:02;;;;;;;2.70;2.10;;;;;;;44.36;19.64;99502.42;430637;1270;141728;-60
2022/06/26 05:22:08;;;;;;;3.30;2.70;;;;;;;46.02;18.17;99512.52;430274;1270;141314;-58
2022/06/26 05:32:14;;;;;;;2.70;2.60;;;;;;;47.54;16.95;99520.09;430674;1270;142066;-58
2022/06/26 05:42:20;;;;;;;3.70;2.30;;;;;;;49.49;15.19;99528.23;430123;1271;144117;-58
2022/06/26 05:52:26;;;;;;;2.60;2.40;;;;;;;49.08;14.42;99534.86;430215;1270;140180;-58
2022/06/26 06:02:32;;;;;;;2.20;2.10;;;;;;;49.31;13.99;99536.63;430597;1270;141135;-60
2022/06/26 06:12:38;;;;;;;2.80;2.50;;;;;;;50.14;13.62;99545.52;430890;1271;141475;-58
2022/06/26 06:22:46;;;;;;;3.00;2.80;;;;;;;51.03;13.09;99561.56;430905;1270;140705;-60
2022/06/26 06:32:53;;;;;;;3.40;3.20;;;;;;;52.15;12.65;99566.83;430836;1270;140977;-58
2022/06/26 06:42:59;;;;;;;6.00;5.60;;;;;;;54.46;11.61;99570.23;430891;1270;142537;-57
2022/06/26 06:53:10;;;;;;;8.10;7.70;;;;;;;55.96;10.85;99579.41;430399;1271;140519;-59
2022/06/26 07:03:15;;;;;;;10.30;9.80;;;;;;;55.65;10.26;99576.48;431515;1270;141074;-59
2022/06/26 07:13:21;;;;;;;14.40;13.60;;;;;;;56.12;10.18;99576.63;431085;1270;141457;-58
2022/06/26 07:23:27;;;;;;;17.10;16.50;;;;;;;56.87;9.85;99577.95;430919;1270;141714;-58
2022/06/26 07:43:57;;;;;;;18.60;17.70;;;;;;;56.50;9.27;99572.27;431525;1271;141636;-59
2022/06/26 07:54:03;;;;;;;3.50;2.30;;;;;;;55.62;9.33;99572.27;430681;1271;141828;-59
2022/06/26 08:04:09;;;;;;;4.50;1.70;;;;;;;48.10;11.75;99562.12;430325;1271;141493;-59
2022/06/26 08:14:15;;;;;;;3.80;2.40;;;;;;;40.69;15.44;99566.24;430038;1271;141701;-57
2022/06/26 08:24:21;;;;;;;5.20;1.90;;;;;;;36.40;18.89;99567.19;432607;1271;141811;-60
2022/06/26 08:34:27;;;;;;;5.10;2.20;;;;;;;34.50;21.08;99573.16;438735;1271;140789;-59
2022/06/26 08:44:34;;;;;;;1.90;1.80;;;;;;;33.70;22.27;99581.06;430572;1270;140916;-59
2022/06/26 08:54:41;;;;;;;6.20;2.60;;;;;;;32.61;23.48;99583.19;430824;1271;141073;-59
2022/06/26 09:04:47;;;;;;;4.20;2.50;;;;;;;32.23;24.40;99585.48;430945;1271;141544;-59
2022/06/26 09:14:55;;;;;;;2.40;2.00;;;;;;;31.82;25.00;99588.91;430276;1270;142941;-59
2022/06/26 09:25:00;;;;;;;3.50;2.10;;;;;;;31.53;25.62;99582.18;430993;1270;141251;-56
2022/06/26 09:35:07;;;;;;;2.10;1.70;;;;;;;31.43;25.66;99580.34;431402;1270;141697;-59
2022/06/26 09:45:13;;;;;;;3.10;2.60;;;;;;;31.48;25.86;99580.82;430674;1270;144493;-60
2022/06/26 09:55:19;;;;;;;2.00;1.90;;;;;;;31.28;26.08;99586.75;429934;1271;318286;-59
2022/06/26 10:15:55;;;;;;;2.40;1.70;;;;;;;30.35;26.76;99590.85;431728;1270;142615;-58
2022/06/26 10:26:13;;;;;;;4.70;2.40;;;;;;;30.15;27.56;99581.13;430458;1270;141833;-59
2022/06/26 10:36:23;;;;;;;4.10;2.10;;;;;;;29.88;27.77;99586.42;431561;1270;142282;-59
2022/06/26 10:46:37;;;;;;;2.20;2.00;;;;;;;29.69;28.08;99577.52;431549;1269;142170;-59
2022/06/26 10:56:43;;;;;;;5.60;2.00;;;;;;;29.66;28.10;99576.64;430554;1270;196530;-59
2022/06/26 11:06:51;;;;;;;3.30;2.10;;;;;;;29.38;28.19;99578.39;430978;1270;141019;-59
2022/06/26 11:16:57;;;;;;;1.90;1.70;;;;;;;29.43;28.12;99575.83;430803;1271;141641;-59
2022/06/26 11:27:03;;;;;;;2.30;2.10;;;;;;;29.46;28.20;99566.77;431556;1270;140528;-58
2022/06/26 11:37:09;;;;;;;2.20;2.10;;;;;;;29.41;28.37;99562.59;430729;1270;141301;-59
2022/06/26 11:47:15;;;;;;;3.60;2.10;;;;;;;29.32;28.68;99571.67;430903;1270;141157;-59
2022/06/26 11:57:21;;;;;;;2.40;2.20;;;;;;;29.30;28.67;99562.16;430549;1270;140274;-59
2022/06/26 12:07:28;;;;;;;4.20;2.20;;;;;;;29.26;28.47;99564.15;430661;1268;142786;-61
2022/06/26 12:17:34;;;;;;;3.50;1.90;;;;;;;29.07;28.58;99564.90;429716;1270;141346;-59
2022/06/26 12:27:43;;;;;;;3.90;2.70;;;;;;;29.16;29.06;99559.17;430460;1270;141176;-58
2022/06/26 12:37:49;;;;;;;3.30;1.90;;;;;;;29.17;29.21;99566.48;431020;1270;141441;-59
2022/06/26 12:47:55;;;;;;;3.70;2.30;;;;;;;28.99;29.62;99557.61;429115;1270;141842;-59
2022/06/26 12:58:00;;;;;;;3.60;2.20;;;;;;;29.08;30.02;99562.48;430053;1270;141666;-60
2022/06/26 13:08:07;;;;;;;2.00;1.90;;;;;;;29.04;29.38;99554.23;430478;1269;141758;-60
2022/06/26 13:18:13;;;;;;;3.00;1.90;;;;;;;29.01;29.42;99556.11;432085;1270;141336;-58
2022/06/26 13:28:19;;;;;;;3.20;2.50;;;;;;;29.02;29.19;99556.38;431797;1270;141078;-59
2022/06/26 13:38:45;;;;;;;2.20;2.00;;;;;;;29.02;29.66;99553.39;430326;1270;141483;-58
2022/06/26 13:48:51;;;;;;;2.20;2.00;;;;;;;28.99;30.17;99551.14;431003;1270;141614;-60
2022/06/26 13:58:57;;;;;;;2.70;2.40;;;;;;;28.98;30.22;99554.88;430941;1270;141283;-59
2022/06/26 14:09:03;;;;;;;2.80;2.20;;;;;;;29.04;30.27;99547.93;430879;1270;142785;-58
2022/06/26 14:19:08;;;;;;;4.80;2.30;;;;;;;29.10;30.12;99551.86;431610;1270;147381;-59
2022/06/26 14:29:15;;;;;;;3.50;2.40;;;;;;;29.13;30.65;99547.63;430987;1270;143850;-59
2022/06/26 14:39:20;;;;;;;3.00;2.30;;;;;;;29.06;30.73;99552.80;430337;1270;140806;-58
2022/06/26 14:49:26;;;;;;;2.00;1.90;;;;;;;28.98;30.61;99543.20;432170;1270;142017;-59
2022/06/26 14:59:36;;;;;;;2.00;1.80;;;;;;;28.96;30.82;99550.16;430387;1270;143334;-60
2022/06/26 15:09:42;;;;;;;2.70;2.40;;;;;;;28.91;30.86;99541.59;431737;1270;142733;-56
2022/06/26 15:19:48;;;;;;;2.80;2.20;;;;;;;28.95;30.88;99542.80;432851;1270;140147;-60
2022/06/26 15:29:54;;;;;;;2.90;2.70;;;;;;;28.98;31.00;99540.08;429800;1270;142626;-59
2022/06/26 15:40:00;;;;;;;2.40;1.90;;;;;;;28.93;31.14;99532.52;430577;1270;141157;-58
2022/06/26 15:50:07;;;;;;;2.20;2.00;;;;;;;28.95;31.28;99527.84;432851;1270;141050;-58
2022/06/26 16:00:14;;;;;;;2.50;2.30;;;;;;;28.88;30.51;99529.31;431573;1270;142668;-63
2022/06/26 16:10:20;;;;;;;3.10;2.80;;;;;;;28.84;31.09;99523.10;434394;1270;140628;-60
2022/06/26 16:20:27;;;;;;;5.70;2.20;;;;;;;28.79;31.04;99517.90;431148;1271;144389;-58
2022/06/26 16:30:33;;;;;;;4.10;2.70;;;;;;;28.73;30.72;99511.11;431900;1270;141351;-59
2022/06/26 16:40:40;;;;;;;3.30;2.10;;;;;;;28.70;30.43;99510.02;430625;1270;142813;-59
2022/06/26 16:50:45;;;;;;;2.70;2.40;;;;;;;28.68;30.48;99509.11;430363;1270;141958;-59
2022/06/26 17:00:52;;;;;;;2.50;2.00;;;;;;;28.71;30.73;99511.63;430838;1270;142050;-59
2022/06/26 17:11:08;;;;;;;2.90;2.40;;;;;;;28.55;31.69;99513.13;431045;1270;141047;-57
2022/06/26 17:21:14;;;;;;;2.60;2.30;;;;;;;28.44;31.53;99515.39;430760;1270;140948;-60
2022/06/26 17:31:19;;;;;;;2.70;1.90;;;;;;;28.49;31.17;99511.13;430560;1270;142054;-58
2022/06/26 17:41:31;;;;;;;2.90;2.50;;;;;;;28.27;31.49;99515.30;430179;1270;141425;-59
2022/06/26 17:51:37;;;;;;;3.00;2.00;;;;;;;28.05;31.70;99517.30;431358;1270;142213;-61
2022/06/26 18:01:43;;;;;;;3.80;2.10;;;;;;;28.45;31.70;99519.98;430760;1271;141386;-61
2022/06/26 18:11:49;;;;;;;5.60;3.10;;;;;;;28.19;31.98;99522.34;430314;1270;140837;-60
2022/06/26 18:21:55;;;;;;;2.80;2.30;;;;;;;27.61;32.84;99523.44;430882;1269;141399;-58
2022/06/26 18:32:01;;;;;;;7.60;2.00;;;;;;;27.23;33.44;99529.27;430013;1270;142065;-59
2022/06/26 18:42:08;;;;;;;4.80;2.60;;;;;;;26.88;34.20;99548.48;430880;1270;141514;-61
2022/06/26 18:52:13;;;;;;;4.90;1.90;;;;;;;26.53;34.89;99561.80;431235;1271;140813;-58
2022/06/26 19:02:20;;;;;;;6.00;2.30;;;;;;;26.18;35.57;99573.34;438108;1269;160763;-60
2022/06/26 19:22:49;;;;;;;4.80;2.70;;;;;;;25.56;37.48;99597.83;433606;1269;146931;-60
2022/06/26 19:32:56;;;;;;;5.70;2.70;;;;;;;25.32;38.04;99606.48;431256;1270;141503;-62
2022/06/26 19:43:02;;;;;;;2.60;2.40;;;;;;;24.97;38.76;99614.37;432340;1270;141934;-61
2022/06/26 19:53:09;;;;;;;4.50;3.10;;;;;;;24.72;39.18;99625.50;430000;1270;141845;-60
2022/06/26 20:13:38;;;;;;;3.70;3.00;;;;;;;24.30;40.32;99636.97;434098;1269;141077;-61
2022/06/26 20:23:44;;;;;;;2.90;2.60;;;;;;;24.18;40.36;99634.16;430593;1270;140490;-60
2022/06/26 20:33:50;;;;;;;5.10;2.80;;;;;;;24.06;40.81;99638.27;439486;1270;141227;-59
2022/06/26 20:43:57;;;;;;;3.60;2.70;;;;;;;24.19;40.84;99640.69;440894;1271;140867;-60
2022/06/26 20:54:02;;;;;;;3.00;2.80;;;;;;;24.31;40.73;99638.83;447229;1269;191722;-61
2022/06/26 21:04:08;;;;;;;2.90;2.50;;;;;;;24.27;40.63;99647.48;445012;1270;141740;-60
2022/06/26 21:14:14;;;;;;;4.20;3.00;;;;;;;24.06;41.28;99650.22;437054;1270;141948;-61
2022/06/26 21:24:21;;;;;;;3.30;3.00;;;;;;;23.93;41.59;99656.81;432085;1269;140640;-60
2022/06/26 21:34:27;;;;;;;6.90;2.90;;;;;;;23.70;42.01;99661.14;432158;1270;141820;-59
2022/06/26 21:44:33;;;;;;;3.70;3.40;;;;;;;23.50;42.49;99657.70;430618;1271;140689;-60
2022/06/26 21:54:39;;;;;;;4.10;3.40;;;;;;;23.32;42.78;99659.87;430884;1270;329340;-58
2022/06/26 22:04:45;;;;;;;5.90;3.20;;;;;;;23.19;43.08;99657.33;431874;1270;147579;-61
2022/06/26 22:14:51;;;;;;;3.30;3.00;;;;;;;23.02;43.62;99655.52;432311;1270;141355;-59
2022/06/26 22:24:57;;;;;;;3.50;3.20;;;;;;;22.93;43.93;99661.03;431408;1270;141181;-59
2022/06/26 22:35:04;;;;;;;3.80;3.50;;;;;;;22.82;44.49;99665.18;429850;1272;142298;-58
2022/06/26 22:45:11;;;;;;;3.40;3.20;;;;;;;22.66;44.81;99662.73;436102;1270;141936;-60
2022/06/26 22:55:18;;;;;;;4.70;3.30;;;;;;;22.57;45.09;99668.21;432276;1270;140158;-60
2022/06/26 23:05:26;;;;;;;4.30;3.90;;;;;;;22.41;45.40;99662.63;430609;1270;141293;-59
2022/06/26 23:15:32;;;;;;;4.20;3.60;;;;;;;22.27;45.98;99662.09;431196;1270;141943;-59
2022/06/26 23:25:38;;;;;;;4.10;3.70;;;;;;;22.13;46.51;99654.14;431731;1270;140678;-60
2022/06/26 23:35:44;;;;;;;3.40;3.10;;;;;;;21.96;46.95;99654.04;430695;1270;141394;-59
2022/06/26 23:45:51;;;;;;;3.50;3.20;;;;;;;21.83;47.45;99653.03;432633;1270;141631;-59
2022/06/26 23:55:57;;;;;;;4.70;4.30;;;;;;;21.72;47.80;99650.30;432398;1270;142110;-61
